createdAt,value
2022-08-29T00:00:17.706Z,5.78
2022-08-29T00:02:48.427Z,6.18
2022-08-29T00:05:18.641Z,6.30
2022-08-29T00:07:46.821Z,5.85
2022-08-29T00:10:16.349Z,6.38
2022-08-29T00:12:44.846Z,6.18
2022-08-29T00:15:15.875Z,5.70
2022-08-29T00:17:45.019Z,6.85
2022-08-29T00:20:17.120Z,5.95
2022-08-29T00:22:46.724Z,6.45
2022-08-29T00:25:16.178Z,6.82
2022-08-29T00:27:49.633Z,6.05
2022-08-29T00:30:20.582Z,5.85
2022-08-29T00:32:49.091Z,6.50
2022-08-29T00:35:20.682Z,5.80
2022-08-29T00:37:51.575Z,6.10
2022-08-29T00:40:23.933Z,6.18
2022-08-29T00:42:52.855Z,5.65
2022-08-29T00:45:21.248Z,5.93
2022-08-29T00:47:53.965Z,6.07
2022-08-29T00:50:28.275Z,6.35
2022-08-29T00:52:59.300Z,6.53
2022-08-29T00:55:31.547Z,6.25
2022-08-29T00:58:03.339Z,6.07
2022-08-29T01:00:32.595Z,5.20
2022-08-29T01:03:00.845Z,5.85
2022-08-29T01:05:30.492Z,6.72
2022-08-29T01:08:00.739Z,6.45
2022-08-29T01:10:46.543Z,6.22
2022-08-29T01:13:15.068Z,6.60
2022-08-29T01:15:46.539Z,5.60
2022-08-29T01:18:16.760Z,5.80
2022-08-29T01:20:59.781Z,5.65
2022-08-29T01:23:35.434Z,6.03
2022-08-29T01:26:06.521Z,5.10
2022-08-29T01:28:39.287Z,6.90
2022-08-29T01:31:10.742Z,5.60
2022-08-29T01:33:43.386Z,6.85
2022-08-29T01:36:15.403Z,6.10
2022-08-29T01:38:43.985Z,6.00
2022-08-29T01:41:13.981Z,6.80
2022-08-29T01:43:49.800Z,6.22
2022-08-29T01:46:21.594Z,5.35
2022-08-29T01:48:50.207Z,5.35
2022-08-29T01:51:19.478Z,5.97
2022-08-29T01:53:48.337Z,5.57
2022-08-29T01:56:21.009Z,5.40
2022-08-29T01:58:51.887Z,5.95
2022-08-29T02:01:23.737Z,7.35
2022-08-29T02:03:53.636Z,6.18
2022-08-29T02:06:22.174Z,5.03
2022-08-29T02:08:50.320Z,5.40
2022-08-29T02:11:20.416Z,5.82
2022-08-29T02:13:51.189Z,5.72
2022-08-29T02:16:22.120Z,5.40
2022-08-29T02:18:50.555Z,5.60
2022-08-29T02:21:21.776Z,6.00
2022-08-29T02:23:51.988Z,6.47
2022-08-29T02:26:22.726Z,5.57
2022-08-29T02:28:52.647Z,5.80
2022-08-29T02:31:21.939Z,5.60
2022-08-29T02:33:50.982Z,5.70
2022-08-29T02:45:45.238Z,5.35
2022-08-29T02:48:14.548Z,6.13
2022-08-29T02:55:15.810Z,5.68
2022-08-29T02:57:45.020Z,5.30
2022-08-29T03:00:18.436Z,5.25
2022-08-29T03:02:48.219Z,5.78
2022-08-29T03:05:17.090Z,5.50
2022-08-29T03:13:38.777Z,5.80
2022-08-29T03:16:06.986Z,5.72
2022-08-29T03:18:36.837Z,5.05
2022-08-29T03:21:05.292Z,6.28
2022-08-29T03:23:33.392Z,5.75
2022-08-29T03:26:02.470Z,5.97
2022-08-29T03:28:30.598Z,5.07
2022-08-29T03:30:59.093Z,6.85
2022-08-29T03:33:27.255Z,6.35
2022-08-29T03:35:56.774Z,5.80
2022-08-29T03:38:24.828Z,6.25
2022-08-29T03:40:53.516Z,5.47
2022-08-29T03:43:26.301Z,5.55
2022-08-29T03:45:54.694Z,4.95
2022-08-29T03:48:22.768Z,4.45
2022-08-29T03:50:54.473Z,5.45
2022-08-29T03:53:26.728Z,4.80
2022-08-29T03:55:55.439Z,5.75
2022-08-29T03:58:23.445Z,4.88
2022-08-29T04:00:51.599Z,5.15
2022-08-29T04:03:20.348Z,4.95
2022-08-29T04:05:55.296Z,5.20
2022-08-29T04:08:26.334Z,4.60
2022-08-29T04:10:54.510Z,4.97
2022-08-29T04:13:22.812Z,5.60
2022-08-29T04:15:51.247Z,5.30
2022-08-29T04:18:21.705Z,5.30
2022-08-29T04:20:50.924Z,4.65
2022-08-29T04:23:18.936Z,5.35
2022-08-29T04:25:48.447Z,4.97
2022-08-29T04:28:17.838Z,5.03
2022-08-29T04:30:51.558Z,5.65
2022-08-29T04:33:22.345Z,4.85
2022-08-29T04:35:52.078Z,5.45
2022-08-29T04:38:20.341Z,4.50
2022-08-29T04:40:50.089Z,5.35
2022-08-29T04:43:18.536Z,6.03
2022-08-29T04:45:46.574Z,4.60
2022-08-29T04:48:14.594Z,5.80
2022-08-29T04:50:42.713Z,5.28
2022-08-29T04:53:10.762Z,5.05
2022-08-29T04:55:38.981Z,5.75
2022-08-29T04:58:10.126Z,5.15
2022-08-29T05:00:38.413Z,4.45
2022-08-29T05:03:07.780Z,5.75
2022-08-29T05:05:36.784Z,5.25
2022-08-29T05:08:05.146Z,4.97
2022-08-29T05:10:33.485Z,4.85
2022-08-29T05:13:01.521Z,5.75
2022-08-29T05:15:31.511Z,4.63
2022-08-29T05:17:59.678Z,5.60
2022-08-29T05:20:27.769Z,5.47
2022-08-29T05:22:55.809Z,5.28
2022-08-29T05:25:24.342Z,4.70
2022-08-29T05:27:52.616Z,4.88
2022-08-29T05:30:32.141Z,4.55
2022-08-29T05:33:04.637Z,5.30
2022-08-29T05:35:33.887Z,4.22
2022-08-29T05:38:08.555Z,4.70
2022-08-29T05:40:38.337Z,5.72
2022-08-29T05:43:07.576Z,4.95
2022-08-29T05:45:37.139Z,5.00
2022-08-29T05:48:09.471Z,5.20
2022-08-29T05:50:39.768Z,4.90
2022-08-29T05:53:07.796Z,4.38
2022-08-29T05:55:40.506Z,5.28
2022-08-29T05:58:08.707Z,4.28
2022-08-29T06:00:39.127Z,4.72
2022-08-29T06:03:11.198Z,3.95
2022-08-29T06:05:40.287Z,5.38
2022-08-29T06:08:09.549Z,4.20
2022-08-29T06:10:42.073Z,4.75
2022-08-29T06:13:10.360Z,4.55
2022-08-29T06:15:38.915Z,4.57
2022-08-29T06:18:07.895Z,4.43
2022-08-29T06:20:38.686Z,4.75
2022-08-29T06:23:06.696Z,4.13
2022-08-29T06:25:39.494Z,4.88
2022-08-29T06:28:08.538Z,4.97
2022-08-29T06:30:36.706Z,5.00
2022-08-29T06:33:05.160Z,4.22
2022-08-29T06:35:33.258Z,3.72
2022-08-29T06:38:02.769Z,4.25
2022-08-29T06:40:30.935Z,4.63
2022-08-29T06:42:59.532Z,4.38
2022-08-29T06:45:27.638Z,4.00
2022-08-29T06:47:55.854Z,4.40
2022-08-29T06:50:24.085Z,4.15
2022-08-29T06:52:52.114Z,5.10
2022-08-29T06:55:24.859Z,4.20
2022-08-29T06:57:55.095Z,5.22
2022-08-29T07:00:23.902Z,4.00
2022-08-29T07:02:53.143Z,4.68
2022-08-29T07:05:22.408Z,5.15
2022-08-29T07:07:51.698Z,4.32
2022-08-29T07:10:22.859Z,4.70
2022-08-29T07:12:53.009Z,5.13
2022-08-29T07:15:22.414Z,5.20
2022-08-29T07:17:51.247Z,5.20
2022-08-29T07:20:19.528Z,5.53
2022-08-29T07:22:51.351Z,4.38
2022-08-29T07:25:21.370Z,4.90
2022-08-29T07:27:52.133Z,5.25
2022-08-29T07:30:23.238Z,5.82
2022-08-29T07:32:52.401Z,5.00
2022-08-29T07:35:29.820Z,5.55
2022-08-29T07:38:01.246Z,5.28
2022-08-29T07:40:30.285Z,5.05
2022-08-29T07:42:58.666Z,4.82
2022-08-29T07:45:28.298Z,5.20
2022-08-29T07:47:56.449Z,5.28
2022-08-29T07:50:24.797Z,5.53
2022-08-29T07:52:53.006Z,4.70
2022-08-29T07:55:23.017Z,6.10
2022-08-29T07:57:52.878Z,4.90
2022-08-29T08:00:21.909Z,5.47
2022-08-29T08:02:51.638Z,5.40
2022-08-29T08:05:19.881Z,5.00
2022-08-29T08:07:55.411Z,5.50
2022-08-29T08:10:24.643Z,5.63
2022-08-29T08:12:53.024Z,5.75
2022-08-29T08:15:22.802Z,6.40
2022-08-29T08:17:52.449Z,6.27
2022-08-29T08:20:20.989Z,6.07
2022-08-29T08:22:49.258Z,5.87
2022-08-29T08:25:17.861Z,6.33
2022-08-29T08:27:52.948Z,5.90
2022-08-29T08:30:21.807Z,5.60
2022-08-29T08:32:55.289Z,6.73
2022-08-29T08:35:23.822Z,6.73
2022-08-29T08:37:52.850Z,5.63
2022-08-29T08:40:26.849Z,6.07
2022-08-29T08:43:00.257Z,6.13
2022-08-29T08:45:34.589Z,5.87
2022-08-29T08:48:10.250Z,6.37
2022-08-29T08:50:44.533Z,5.67
2022-08-29T08:53:19.392Z,6.73
2022-08-29T08:55:49.636Z,6.50
2022-08-29T08:58:33.157Z,6.80
2022-08-29T09:01:05.039Z,6.13
2022-08-29T09:04:06.438Z,6.80
2022-08-29T09:06:53.439Z,6.83
2022-08-29T09:09:31.415Z,5.90
2022-08-29T09:12:09.446Z,6.20
2022-08-29T09:14:48.546Z,7.40
2022-08-29T09:17:21.369Z,5.87
2022-08-29T09:19:50.969Z,5.57
2022-08-29T09:22:26.827Z,6.27
2022-08-29T09:25:03.849Z,7.37
2022-08-29T09:27:34.281Z,6.30
2022-08-29T09:30:08.044Z,6.10
2022-08-29T09:32:52.061Z,6.03
2022-08-29T09:35:24.443Z,7.40
2022-08-29T09:38:02.621Z,6.60
2022-08-29T09:40:45.696Z,7.57
2022-08-29T09:43:20.051Z,7.87
2022-08-29T09:46:17.681Z,6.33
2022-08-29T09:48:49.438Z,7.60
2022-08-29T09:51:24.609Z,8.30
2022-08-29T09:53:56.053Z,7.50
2022-08-29T09:56:28.426Z,7.43
2022-08-29T09:59:03.586Z,7.17
2022-08-29T10:01:36.789Z,6.57
2022-08-29T10:04:08.257Z,6.67
2022-08-29T10:06:45.136Z,6.70
2022-08-29T10:09:27.616Z,5.83
2022-08-29T10:12:01.309Z,6.60
2022-08-29T10:14:35.093Z,6.10
2022-08-29T10:17:26.894Z,5.90
2022-08-29T10:19:55.396Z,6.73
2022-08-29T10:22:31.028Z,5.90
2022-08-29T10:25:07.143Z,6.60
2022-08-29T10:27:43.864Z,6.83
2022-08-29T10:30:15.794Z,6.67
2022-08-29T10:33:09.782Z,7.07
2022-08-29T10:35:43.627Z,7.20
2022-08-29T10:38:20.064Z,6.50
2022-08-29T10:40:52.226Z,6.20
2022-08-29T10:43:34.932Z,6.60
2022-08-29T10:46:18.868Z,6.23
2022-08-29T10:48:53.853Z,5.80
2022-08-29T10:51:32.474Z,6.07
2022-08-29T10:54:09.228Z,6.40
2022-08-29T10:56:43.980Z,6.40
2022-08-29T10:59:21.499Z,5.73
2022-08-29T11:01:56.219Z,6.00
2022-08-29T11:04:31.608Z,5.27
2022-08-29T11:07:04.782Z,6.13
2022-08-29T11:09:40.476Z,4.53
2022-08-29T11:12:17.454Z,6.40
2022-08-29T11:14:51.168Z,5.47
2022-08-29T11:17:21.617Z,5.00
2022-08-29T11:20:02.130Z,6.20
2022-08-29T11:22:36.794Z,6.70
2022-08-29T11:25:10.618Z,6.97
2022-08-29T11:27:47.844Z,5.60
2022-08-29T11:30:21.316Z,5.50
2022-08-29T11:33:00.075Z,6.77
2022-08-29T11:35:40.184Z,5.90
2022-08-29T11:38:40.431Z,5.83
2022-08-29T11:41:29.980Z,6.10
2022-08-29T11:44:15.354Z,5.40
2022-08-29T11:46:49.327Z,6.17
2022-08-29T11:49:38.738Z,6.33
2022-08-29T11:52:31.209Z,5.93
2022-08-29T11:55:25.497Z,6.07
2022-08-29T11:58:00.513Z,5.87
2022-08-29T12:00:55.248Z,6.03
2022-08-29T12:03:57.486Z,5.93
2022-08-29T12:07:01.309Z,5.90
2022-08-29T12:09:44.585Z,5.60
2022-08-29T12:12:38.594Z,5.67
2022-08-29T12:15:55.168Z,6.40
2022-08-29T12:18:50.815Z,5.47
2022-08-29T12:21:45.691Z,5.37
2022-08-29T12:24:40.696Z,5.63
2022-08-29T12:27:46.424Z,5.23
2022-08-29T12:30:15.263Z,5.77
2022-08-29T12:32:58.144Z,6.10
2022-08-29T12:35:59.581Z,5.73
2022-08-29T12:38:41.413Z,4.93
2022-08-29T12:41:31.743Z,6.10
2022-08-29T12:44:04.183Z,5.87
2022-08-29T12:46:36.486Z,5.47
2022-08-29T12:49:18.181Z,5.60
2022-08-29T12:51:51.077Z,6.27
2022-08-29T12:54:32.312Z,5.77
2022-08-29T12:57:03.614Z,6.17
2022-08-29T12:59:32.038Z,5.90
2022-08-29T13:02:00.999Z,5.80
2022-08-29T13:04:33.742Z,5.83
2022-08-29T13:07:06.412Z,5.80
2022-08-29T13:09:40.347Z,6.80
2022-08-29T13:12:16.887Z,6.60
2022-08-29T13:15:00.932Z,6.00
2022-08-29T13:17:34.922Z,5.23
2022-08-29T13:20:52.327Z,6.10
2022-08-29T13:23:26.179Z,5.13
2022-08-29T13:25:59.659Z,4.47
2022-08-29T13:28:40.489Z,5.27
2022-08-29T13:31:25.951Z,6.20
2022-08-29T13:34:21.298Z,5.00
2022-08-29T13:37:10.473Z,4.93
2022-08-29T13:39:47.192Z,5.30
2022-08-29T13:42:31.570Z,5.20
2022-08-29T13:45:11.388Z,4.93
2022-08-29T13:47:51.321Z,5.10
2022-08-29T13:50:19.560Z,5.50
2022-08-29T13:52:51.202Z,4.60
2022-08-29T13:55:21.980Z,4.77
2022-08-29T13:57:52.516Z,5.40
2022-08-29T14:00:34.741Z,5.87
2022-08-29T14:03:05.631Z,5.20
2022-08-29T14:05:35.338Z,5.07
2022-08-29T14:08:05.676Z,4.63
2022-08-29T14:10:35.617Z,5.83
2022-08-29T14:13:04.353Z,5.30
2022-08-29T14:15:33.246Z,4.80
2022-08-29T14:18:01.487Z,5.30
2022-08-29T14:20:29.659Z,5.43
2022-08-29T14:22:57.793Z,5.13
2022-08-29T14:25:25.863Z,5.50
2022-08-29T14:27:55.491Z,4.47
2022-08-29T14:30:25.208Z,5.87
2022-08-29T14:32:53.980Z,5.60
2022-08-29T14:35:26.214Z,4.87
2022-08-29T14:37:56.700Z,5.10
2022-08-29T14:40:26.011Z,5.53
2022-08-29T14:42:58.974Z,4.43
2022-08-29T14:45:27.550Z,5.60
2022-08-29T14:47:55.676Z,4.93
2022-08-29T14:50:25.068Z,4.80
2022-08-29T14:52:53.643Z,5.40
2022-08-29T14:55:22.401Z,5.50
2022-08-29T14:57:50.736Z,4.83
2022-08-29T15:00:22.381Z,5.50
2022-08-29T15:02:51.224Z,5.17
2022-08-29T15:05:19.662Z,5.43
2022-08-29T15:07:48.129Z,5.00
2022-08-29T15:10:18.588Z,6.63
2022-08-29T15:12:47.229Z,5.33
2022-08-29T15:15:15.350Z,5.57
2022-08-29T15:17:45.499Z,4.87
2022-08-29T15:20:35.541Z,5.50
2022-08-29T15:23:04.041Z,5.07
2022-08-29T15:25:32.485Z,5.20
2022-08-29T15:28:00.727Z,5.63
2022-08-29T15:30:29.352Z,5.90
2022-08-29T15:32:59.743Z,5.60
2022-08-29T15:35:28.038Z,4.93
2022-08-29T15:37:56.590Z,4.30
2022-08-29T15:40:25.111Z,4.97
2022-08-29T15:42:53.427Z,5.47
2022-08-29T15:45:22.511Z,5.03
2022-08-29T15:47:51.493Z,5.83
2022-08-29T15:50:24.248Z,5.00
2022-08-29T15:52:52.279Z,5.30
2022-08-29T15:55:20.705Z,5.10
2022-08-29T15:57:51.740Z,4.60
2022-08-29T16:00:30.148Z,5.10
2022-08-29T16:03:02.531Z,4.83
2022-08-29T16:05:33.151Z,5.03
2022-08-29T16:08:01.880Z,5.60
2022-08-29T16:10:30.377Z,4.67
2022-08-29T16:12:58.649Z,4.53
2022-08-29T16:15:27.654Z,5.27
2022-08-29T16:17:56.027Z,4.80
2022-08-29T16:20:24.073Z,5.30
2022-08-29T16:22:54.254Z,4.80
2022-08-29T16:25:23.303Z,4.40
2022-08-29T16:27:51.727Z,5.70
2022-08-29T16:30:20.553Z,4.90
2022-08-29T16:32:49.984Z,5.40
2022-08-29T16:35:20.039Z,5.30
2022-08-29T16:37:59.710Z,5.00
2022-08-29T16:40:33.445Z,4.60
2022-08-29T16:43:02.824Z,4.33
2022-08-29T16:45:31.639Z,5.03
2022-08-29T16:48:00.074Z,5.30
2022-08-29T16:50:28.654Z,4.90
2022-08-29T16:52:57.176Z,5.00
2022-08-29T16:55:26.006Z,4.83
2022-08-29T16:58:12.694Z,4.43
2022-08-29T17:00:41.415Z,5.00
2022-08-29T17:03:09.579Z,4.80
2022-08-29T17:05:37.820Z,5.57
2022-08-29T17:08:05.087Z,5.50
2022-08-29T17:10:32.036Z,5.10
2022-08-29T17:13:00.506Z,5.40
2022-08-29T17:15:27.638Z,4.80
2022-08-29T17:17:56.237Z,5.10
2022-08-29T17:20:24.490Z,4.90
2022-08-29T17:22:53.490Z,5.30
2022-08-29T17:25:22.187Z,5.20
2022-08-29T17:28:14.221Z,4.93
2022-08-29T17:30:40.489Z,4.23
2022-08-29T17:33:10.776Z,4.43
2022-08-29T17:35:39.220Z,4.87
2022-08-29T17:38:07.303Z,4.70
2022-08-29T17:40:36.929Z,4.73
2022-08-29T17:43:05.503Z,5.43
2022-08-29T17:45:33.650Z,4.47
2022-08-29T17:48:04.727Z,4.97
2022-08-29T17:50:33.146Z,4.57
2022-08-29T17:53:01.659Z,4.60
2022-08-29T17:55:30.968Z,4.20
2022-08-29T17:58:02.752Z,5.10
2022-08-29T18:00:34.152Z,4.57
2022-08-29T18:03:07.015Z,4.93
2022-08-29T18:05:38.978Z,5.00
2022-08-29T18:08:12.090Z,4.83
2022-08-29T18:10:45.108Z,4.80
2022-08-29T18:13:20.990Z,4.90
2022-08-29T18:15:54.764Z,4.87
2022-08-29T18:18:28.064Z,4.73
2022-08-29T18:20:58.963Z,4.57
2022-08-29T18:23:29.788Z,4.57
2022-08-29T18:26:04.771Z,5.47
2022-08-29T18:28:38.279Z,4.80
2022-08-29T18:31:11.828Z,6.53
2022-08-29T18:34:06.938Z,6.67
2022-08-29T18:36:43.912Z,5.03
2022-08-29T18:39:17.330Z,6.20
2022-08-29T18:41:52.233Z,5.70
2022-08-29T18:44:26.772Z,5.60
2022-08-29T18:46:57.846Z,5.97
2022-08-29T18:49:45.377Z,5.80
2022-08-29T18:52:17.291Z,5.93
2022-08-29T18:54:49.830Z,5.00
2022-08-29T18:57:24.231Z,4.80
2022-08-29T18:59:59.978Z,5.50
2022-08-29T19:02:34.047Z,5.50
2022-08-29T19:05:07.102Z,5.13
2022-08-29T19:07:39.759Z,5.27
2022-08-29T19:10:10.563Z,5.30
2022-08-29T19:12:40.279Z,4.93
2022-08-29T19:15:13.485Z,5.70
2022-08-29T19:17:44.920Z,4.83
2022-08-29T19:20:37.127Z,4.80
2022-08-29T19:23:07.526Z,5.03
2022-08-29T19:25:40.552Z,4.40
2022-08-29T19:28:14.800Z,4.63
2022-08-29T19:30:50.331Z,5.30
2022-08-29T19:33:22.673Z,5.20
2022-08-29T19:35:57.339Z,4.20
2022-08-29T19:38:28.610Z,5.00
2022-08-29T19:41:02.031Z,4.37
2022-08-29T19:43:35.262Z,4.87
2022-08-29T19:46:14.432Z,5.13
2022-08-29T19:48:48.536Z,5.00
2022-08-29T19:51:26.016Z,5.50
2022-08-29T19:53:57.578Z,5.03
2022-08-29T19:56:28.748Z,5.17
2022-08-29T19:59:00.378Z,4.67
2022-08-29T20:01:31.984Z,5.10
2022-08-29T20:04:04.205Z,5.00
2022-08-29T20:06:38.256Z,4.20
2022-08-29T20:09:09.108Z,4.27
2022-08-29T20:11:40.038Z,4.70
2022-08-29T20:14:16.596Z,5.50
2022-08-29T20:16:46.033Z,5.33
2022-08-29T20:19:16.296Z,5.10
2022-08-29T20:21:47.194Z,4.90
2022-08-29T20:24:19.390Z,4.70
2022-08-29T20:26:51.081Z,4.43
2022-08-29T20:29:24.550Z,4.23
2022-08-29T20:31:58.266Z,4.40
2022-08-29T20:34:32.037Z,4.23
2022-08-29T20:37:09.931Z,4.50
2022-08-29T20:39:44.834Z,4.33
2022-08-29T20:42:19.080Z,4.50
2022-08-29T20:44:50.842Z,5.17
2022-08-29T20:47:23.446Z,5.73
2022-08-29T20:49:57.891Z,5.40
2022-08-29T20:52:30.283Z,5.47
2022-08-29T20:55:00.567Z,4.80
2022-08-29T20:57:29.522Z,5.03
2022-08-29T21:00:00.167Z,4.23
2022-08-29T21:02:47.763Z,5.67
2022-08-29T21:05:35.819Z,4.27
2022-08-29T21:08:10.668Z,4.80
2022-08-29T21:10:40.519Z,4.63
2022-08-29T21:13:10.383Z,5.60
2022-08-29T21:15:42.047Z,5.27
2022-08-29T21:18:13.805Z,5.40
2022-08-29T21:20:54.062Z,5.50
2022-08-29T21:23:27.828Z,5.27
2022-08-29T21:26:00.599Z,6.77
2022-08-29T21:28:32.748Z,5.60
2022-08-29T21:31:05.414Z,6.63
2022-08-29T21:33:36.719Z,5.30
2022-08-29T21:36:08.354Z,6.53
2022-08-29T21:38:38.095Z,6.50
2022-08-29T21:41:09.517Z,5.65
2022-08-29T21:43:38.207Z,5.50
2022-08-29T21:46:15.293Z,5.20
2022-08-29T21:48:43.484Z,5.10
2022-08-29T21:51:12.997Z,5.35
2022-08-29T21:53:42.515Z,5.30
2022-08-29T21:56:10.741Z,5.80
2022-08-29T21:58:39.026Z,6.43
2022-08-29T22:01:10.384Z,5.00
2022-08-29T22:03:38.681Z,5.37
2022-08-29T22:06:07.897Z,4.83
2022-08-29T22:08:39.330Z,5.15
2022-08-29T22:11:13.930Z,5.15
2022-08-29T22:13:42.201Z,5.40
2022-08-29T22:16:28.389Z,5.40
2022-08-29T22:18:59.362Z,5.07
2022-08-29T22:21:29.218Z,5.75
2022-08-29T22:23:57.459Z,5.43
2022-08-29T22:26:27.793Z,5.28
2022-08-29T22:28:56.300Z,6.55
2022-08-29T22:31:25.140Z,6.13
2022-08-29T22:33:53.761Z,5.22
2022-08-29T22:36:21.944Z,5.63
2022-08-29T22:38:53.571Z,5.68
2022-08-29T22:41:26.472Z,5.78
2022-08-29T22:44:31.619Z,6.28
2022-08-29T22:46:45.914Z,5.53
2022-08-29T22:49:14.686Z,5.75
2022-08-29T22:51:42.896Z,5.15
2022-08-29T22:54:28.671Z,6.40
2022-08-29T22:56:58.903Z,5.47
2022-08-29T22:59:27.114Z,5.20
2022-08-29T23:01:55.865Z,6.10
2022-08-29T23:04:24.162Z,6.13
2022-08-29T23:06:52.302Z,5.78
2022-08-29T23:09:21.054Z,5.53
2022-08-29T23:11:50.199Z,6.10
2022-08-29T23:14:20.789Z,5.57
2022-08-29T23:16:49.361Z,5.20
2022-08-29T23:19:17.659Z,5.80
2022-08-29T23:21:46.264Z,5.90
2022-08-29T23:24:14.536Z,5.68
2022-08-29T23:26:43.254Z,5.68
2022-08-29T23:29:11.540Z,5.75
2022-08-29T23:31:41.256Z,5.43
2022-08-29T23:34:09.557Z,5.07
2022-08-29T23:36:37.753Z,6.00
2022-08-29T23:39:06.666Z,5.90
2022-08-29T23:41:35.390Z,5.53
2022-08-29T23:44:04.340Z,5.70
2022-08-29T23:46:32.655Z,5.93
2022-08-29T23:49:02.148Z,6.85
2022-08-29T23:51:30.429Z,5.40
2022-08-29T23:53:58.773Z,5.18
2022-08-29T23:56:27.488Z,5.90
2022-08-29T23:58:56.788Z,5.68
